Arpan, South Dakota
Current Conditions -  °F | °C
As of 1:55 PM on Tuesday 21 Oct 2014 (Local Time) from KSPF Reporting Station
Clear Clear  
Wind Chill: 77°   Ceiling: Unl
Heat Index: 78°   Visibility: 10mi
Dew Point: 43°   Wind: 15mph
Humidity: 29%   Direction: 220°SW
Pressure: 29.77"   Gusts: 26mph
Location:  44.6391°N, 103.522°W
Report Text: KSPF 211955Z AUTO 22013G23KT 10SM CLR 25/06 A2977 RMK AO2
Loading
Personal Weather Stations






























Interactive Weather Map
Tropical Storm Tracking
New forecast layout! Learn more

10-Day Weather Forecast

Advertisements
Track Severe Weather on mobile